createdAt,value
2018-12-15T00:01:11.729Z,102486.95
2018-12-15T00:03:39.232Z,102484.39
2018-12-15T00:06:06.705Z,102488.75
2018-12-15T00:08:34.110Z,102492.02
2018-12-15T00:11:01.512Z,102488.16
2018-12-15T00:13:28.891Z,102488.02
2018-12-15T00:15:56.302Z,102487.27
2018-12-15T00:18:23.694Z,102486.88
2018-12-15T00:20:51.097Z,102489.89
2018-12-15T00:23:18.470Z,102490.83
2018-12-15T00:25:45.869Z,102496.89
2018-12-15T00:28:13.257Z,102493.08
2018-12-15T00:30:40.641Z,102491.17
2018-12-15T00:33:08.033Z,102496.33
2018-12-15T00:35:35.423Z,102497.59
2018-12-15T00:38:02.831Z,102501.00
2018-12-15T00:40:30.210Z,102498.83
2018-12-15T00:42:57.597Z,102502.27
2018-12-15T00:45:25.070Z,102505.30
2018-12-15T00:47:52.467Z,102508.30
2018-12-15T00:50:19.852Z,102501.52
2018-12-15T00:52:47.238Z,102508.90
2018-12-15T00:55:14.707Z,102507.24
2018-12-15T00:57:42.173Z,102501.97
2018-12-15T01:00:09.576Z,102507.53
2018-12-15T01:02:36.967Z,102515.68
2018-12-15T01:05:04.550Z,102518.27
2018-12-15T01:07:32.020Z,102513.95
2018-12-15T01:09:59.412Z,102519.05
2018-12-15T01:12:26.869Z,102517.76
2018-12-15T01:14:54.259Z,102520.38
2018-12-15T01:17:21.647Z,102520.41
2018-12-15T01:19:49.058Z,102519.25
2018-12-15T01:22:16.437Z,102520.88
2018-12-15T01:24:43.833Z,102518.35
2018-12-15T01:27:11.302Z,102520.56
2018-12-15T01:29:38.710Z,102523.89
2018-12-15T01:32:06.100Z,102525.21
2018-12-15T01:34:33.492Z,102526.87
2018-12-15T01:37:00.878Z,102527.63
2018-12-15T01:39:28.269Z,102529.70
2018-12-15T01:41:55.656Z,102531.50
2018-12-15T01:44:23.049Z,102525.06
2018-12-15T01:46:50.433Z,102527.61
2018-12-15T01:49:17.808Z,102526.34
2018-12-15T01:51:45.206Z,102528.92
2018-12-15T01:54:12.605Z,102525.61
2018-12-15T01:56:39.989Z,102526.84
2018-12-15T01:59:07.389Z,102525.89
2018-12-15T02:01:34.794Z,102519.02
2018-12-15T02:04:02.193Z,102519.36
2018-12-15T02:06:29.586Z,102519.81
2018-12-15T02:08:56.974Z,102522.91
2018-12-15T02:11:24.367Z,102519.56
2018-12-15T02:13:51.761Z,102527.63
2018-12-15T02:16:19.143Z,102522.06
2018-12-15T02:18:46.538Z,102510.11
2018-12-15T02:21:13.926Z,102516.55
2018-12-15T02:23:41.774Z,102516.40
2018-12-15T02:26:09.176Z,102518.02
2018-12-15T02:28:36.592Z,102519.31
2018-12-15T02:31:03.978Z,102523.22
2018-12-15T02:33:31.361Z,102513.33
2018-12-15T02:35:58.754Z,102511.54
2018-12-15T02:38:26.241Z,102514.98
2018-12-15T02:40:53.703Z,102517.89
2018-12-15T02:43:21.173Z,102523.98
2018-12-15T02:45:48.582Z,102518.84
2018-12-15T02:48:15.966Z,102517.55
2018-12-15T02:50:43.362Z,102524.74
2018-12-15T02:53:10.749Z,102524.74
2018-12-15T02:55:38.127Z,102521.75
2018-12-15T02:58:05.531Z,102525.45
2018-12-15T03:00:32.998Z,102527.31
2018-12-15T03:03:00.383Z,102520.94
2018-12-15T03:05:27.795Z,102519.58
2018-12-15T03:07:55.186Z,102518.84
2018-12-15T03:10:22.572Z,102523.12
2018-12-15T03:12:49.966Z,102526.22
2018-12-15T03:15:17.342Z,102526.72
2018-12-15T03:17:48.842Z,102524.87
2018-12-15T03:20:14.125Z,102521.38
2018-12-15T03:22:41.518Z,102522.70
2018-12-15T03:25:08.917Z,102521.47
2018-12-15T03:27:36.324Z,102527.55
2018-12-15T03:30:04.936Z,102529.20
2018-12-15T03:32:32.402Z,102533.88
2018-12-15T03:34:59.865Z,102529.31
2018-12-15T03:37:27.262Z,102527.88
2018-12-15T03:39:54.652Z,102533.35
2018-12-15T03:42:22.037Z,102527.95
2018-12-15T03:44:49.455Z,102525.27
2018-12-15T03:47:16.836Z,102528.20
2018-12-15T03:49:44.219Z,102520.07
2018-12-15T03:52:11.612Z,102522.14
2018-12-15T03:54:39.001Z,102517.73
2018-12-15T03:57:06.433Z,102519.88
2018-12-15T03:59:34.092Z,102522.17
2018-12-15T04:02:01.662Z,102515.33
2018-12-15T04:04:30.247Z,102515.16
2018-12-15T04:06:57.645Z,102516.89
2018-12-15T04:09:25.034Z,102516.53
2018-12-15T04:11:52.429Z,102522.52
2018-12-15T04:14:19.838Z,102519.94
2018-12-15T04:16:47.218Z,102522.48
2018-12-15T04:19:15.182Z,102526.89
2018-12-15T04:21:42.594Z,102525.19
2018-12-15T04:24:09.990Z,102528.11
2018-12-15T04:26:37.375Z,102533.47
2018-12-15T04:29:06.662Z,102537.14
2018-12-15T04:31:34.117Z,102533.59
2018-12-15T04:34:01.487Z,102536.66
2018-12-15T04:36:28.869Z,102547.42
2018-12-15T04:38:56.338Z,102542.20
2018-12-15T04:41:23.724Z,102539.29
2018-12-15T04:43:51.318Z,102541.66
2018-12-15T04:46:18.702Z,102547.73
2018-12-15T04:48:46.163Z,102546.89
2018-12-15T04:51:13.622Z,102539.66
2018-12-15T04:53:41.047Z,102534.17
2018-12-15T04:56:08.439Z,102539.54
2018-12-15T04:58:35.838Z,102537.50
2018-12-15T05:01:03.218Z,102532.72
2018-12-15T05:03:30.598Z,102535.48
2018-12-15T05:05:57.995Z,102540.27
2018-12-15T05:08:25.381Z,102543.70
2018-12-15T05:10:52.775Z,102546.27
2018-12-15T05:13:20.162Z,102544.94
2018-12-15T05:15:47.560Z,102537.24
2018-12-15T05:18:18.138Z,102538.19
2018-12-15T05:20:44.320Z,102534.62
2018-12-15T05:23:11.722Z,102537.30
2018-12-15T05:25:39.107Z,102538.87
2018-12-15T05:28:06.492Z,102540.58
2018-12-15T05:30:33.866Z,102542.20
2018-12-15T05:33:01.257Z,102538.89
2018-12-15T05:35:28.881Z,102549.16
2018-12-15T05:37:56.359Z,102548.74
2018-12-15T05:40:23.826Z,102547.34
2018-12-15T05:42:51.202Z,102543.15
2018-12-15T05:45:18.676Z,102548.80
2018-12-15T05:47:46.058Z,102547.79
2018-12-15T05:50:13.478Z,102551.06
2018-12-15T05:52:40.854Z,102555.84
2018-12-15T05:55:08.235Z,102547.84
2018-12-15T05:57:35.626Z,102550.90
2018-12-15T06:00:04.715Z,102550.78
2018-12-15T06:02:32.417Z,102550.75
2018-12-15T06:04:59.918Z,102549.89
2018-12-15T06:07:27.310Z,102558.47
2018-12-15T06:09:54.699Z,102553.02
2018-12-15T06:12:22.085Z,102551.31
2018-12-15T06:14:49.461Z,102554.75
2018-12-15T06:17:16.868Z,102544.35
2018-12-15T06:19:44.242Z,102549.89
2018-12-15T06:22:11.626Z,102555.81
2018-12-15T06:24:39.100Z,102553.23
2018-12-15T06:27:06.488Z,102554.13
2018-12-15T06:29:33.870Z,102556.38
2018-12-15T06:32:01.241Z,102559.22
2018-12-15T06:34:28.629Z,102559.70
2018-12-15T06:36:56.013Z,102558.55
2018-12-15T06:39:23.424Z,102562.52
2018-12-15T06:41:50.886Z,102560.29
2018-12-15T06:44:18.268Z,102561.18
2018-12-15T06:46:45.650Z,102560.73
2018-12-15T06:49:13.117Z,102557.66
2018-12-15T06:51:40.595Z,102556.98
2018-12-15T06:54:08.639Z,102557.33
2018-12-15T06:56:36.052Z,102553.46
2018-12-15T06:59:03.475Z,102559.50
2018-12-15T07:01:30.881Z,102551.75
2018-12-15T07:03:58.274Z,102553.48
2018-12-15T07:06:25.690Z,102547.81
2018-12-15T07:08:53.081Z,102543.01
2018-12-15T07:11:20.457Z,102553.41
2018-12-15T07:13:47.867Z,102552.91
2018-12-15T07:16:15.252Z,102561.07
2018-12-15T07:18:44.970Z,102564.48
2018-12-15T07:21:12.092Z,102563.28
2018-12-15T07:23:39.927Z,102565.37
2018-12-15T07:26:07.350Z,102557.69
2018-12-15T07:28:34.730Z,102568.06
2018-12-15T07:31:02.113Z,102567.98
2018-12-15T07:33:29.506Z,102568.04
2018-12-15T07:35:56.908Z,102568.34
2018-12-15T07:38:24.305Z,102568.84
2018-12-15T07:40:51.714Z,102565.80
2018-12-15T07:43:19.094Z,102562.92
2018-12-15T07:45:46.475Z,102569.69
2018-12-15T07:48:13.933Z,102560.92
2018-12-15T07:50:41.334Z,102559.78
2018-12-15T07:53:08.742Z,102559.37
2018-12-15T07:55:36.121Z,102561.49
2018-12-15T07:58:03.554Z,102559.50
2018-12-15T08:00:30.950Z,102554.73
2018-12-15T08:02:58.335Z,102560.42
2018-12-15T08:05:25.727Z,102554.75
2018-12-15T08:07:53.106Z,102557.72
2018-12-15T08:10:23.621Z,102555.67
2018-12-15T08:13:02.513Z,102562.11
2018-12-15T08:15:30.096Z,102561.55
2018-12-15T08:17:57.581Z,102566.30
2018-12-15T08:20:24.962Z,102558.14
2018-12-15T08:22:52.349Z,102570.47
2018-12-15T08:25:19.745Z,102566.72
2018-12-15T08:27:47.145Z,102566.10
2018-12-15T08:30:14.537Z,102566.25
2018-12-15T08:32:41.925Z,102564.95
2018-12-15T08:35:09.325Z,102566.02
2018-12-15T08:37:36.783Z,102567.47
2018-12-15T08:40:04.581Z,102562.41
2018-12-15T08:42:31.967Z,102562.91
2018-12-15T08:44:59.363Z,102560.79
2018-12-15T08:47:26.756Z,102558.86
2018-12-15T08:49:54.130Z,102564.52
2018-12-15T08:52:21.619Z,102570.11
2018-12-15T08:54:49.013Z,102569.21
2018-12-15T08:57:19.257Z,102568.80
2018-12-15T08:59:46.675Z,102574.05
2018-12-15T09:02:14.071Z,102581.88
2018-12-15T09:04:41.526Z,102578.55
2018-12-15T09:07:09.085Z,102583.41
2018-12-15T09:09:36.492Z,102581.57
2018-12-15T09:12:03.896Z,102573.94
2018-12-15T09:14:31.293Z,102577.34
2018-12-15T09:16:58.670Z,102575.59
2018-12-15T09:19:26.070Z,102579.00
2018-12-15T09:21:53.469Z,102576.98
2018-12-15T09:24:21.266Z,102577.07
2018-12-15T09:26:49.578Z,102573.02
2018-12-15T09:29:16.975Z,102578.69
2018-12-15T09:31:44.366Z,102577.42
2018-12-15T09:34:11.853Z,102579.13
2018-12-15T09:36:39.252Z,102571.83
2018-12-15T09:39:07.353Z,102577.00
2018-12-15T09:41:34.827Z,102572.64
2018-12-15T09:44:02.224Z,102564.51
2018-12-15T09:46:29.606Z,102566.27
2018-12-15T09:48:57.010Z,102561.14
2018-12-15T09:51:24.390Z,102563.41
2018-12-15T09:53:51.813Z,102566.45
2018-12-15T09:56:19.248Z,102565.42
2018-12-15T09:58:46.668Z,102568.89
2018-12-15T10:01:14.059Z,102568.63
2018-12-15T10:03:41.714Z,102563.80
2018-12-15T10:06:09.128Z,102564.72
2018-12-15T10:08:36.619Z,102557.44
2018-12-15T10:11:06.517Z,102553.45
2018-12-15T10:13:36.059Z,102550.55
2018-12-15T10:16:03.890Z,102556.52
2018-12-15T10:18:31.293Z,102554.73
2018-12-15T10:20:58.697Z,102553.13
2018-12-15T10:23:26.093Z,102549.73
2018-12-15T10:25:53.485Z,102547.76
2018-12-15T10:28:20.889Z,102557.29
2018-12-15T10:30:54.006Z,102551.30
2018-12-15T10:33:21.374Z,102550.06
2018-12-15T10:35:48.822Z,102542.55
2018-12-15T10:38:16.227Z,102549.80
2018-12-15T10:40:43.616Z,102538.55
2018-12-15T10:43:10.999Z,102537.50
2018-12-15T10:45:38.469Z,102535.34
2018-12-15T10:48:05.872Z,102530.20
2018-12-15T10:50:33.272Z,102524.09
2018-12-15T10:53:00.657Z,102521.25
2018-12-15T10:55:28.072Z,102516.52
2018-12-15T10:57:55.528Z,102514.77
2018-12-15T11:00:26.574Z,102507.06
2018-12-15T11:02:54.189Z,102512.81
2018-12-15T11:05:21.634Z,102509.58
2018-12-15T11:07:49.014Z,102509.53
2018-12-15T11:10:16.395Z,102505.59
2018-12-15T11:12:43.817Z,102509.31
2018-12-15T11:15:11.209Z,102499.89
2018-12-15T11:17:39.537Z,102499.39
2018-12-15T11:20:07.033Z,102496.50
2018-12-15T11:22:34.414Z,102490.55
2018-12-15T11:25:01.787Z,102494.02
2018-12-15T11:27:29.193Z,102490.22
2018-12-15T11:29:56.585Z,102483.77
2018-12-15T11:32:23.957Z,102476.86
2018-12-15T11:34:51.353Z,102475.22
2018-12-15T11:37:18.737Z,102465.78
2018-12-15T11:39:46.111Z,102473.70
2018-12-15T11:42:13.502Z,102477.29
2018-12-15T11:44:40.884Z,102470.97
2018-12-15T11:47:08.293Z,102471.17
2018-12-15T11:49:35.799Z,102467.39
2018-12-15T11:52:03.186Z,102470.89
2018-12-15T11:54:30.632Z,102466.10
2018-12-15T11:56:58.075Z,102459.15
2018-12-15T11:59:25.538Z,102460.55
2018-12-15T12:01:53.176Z,102455.76
2018-12-15T12:04:20.689Z,102450.26
2018-12-15T12:06:48.095Z,102451.52
2018-12-15T12:09:15.495Z,102456.03
2018-12-15T12:11:42.957Z,102459.15
2018-12-15T12:14:10.346Z,102449.37
2018-12-15T12:16:37.734Z,102450.38
2018-12-15T12:19:05.149Z,102448.27
2018-12-15T12:21:32.621Z,102442.86
2018-12-15T12:24:00.092Z,102441.66
2018-12-15T12:26:27.481Z,102444.74
2018-12-15T12:28:54.897Z,102440.20
2018-12-15T12:31:22.278Z,102435.09
2018-12-15T12:33:49.659Z,102429.91
2018-12-15T12:36:17.062Z,102439.36
2018-12-15T12:38:44.438Z,102427.56
2018-12-15T12:41:11.829Z,102429.02
2018-12-15T12:43:40.023Z,102432.76
2018-12-15T12:46:07.422Z,102432.16
2018-12-15T12:48:34.990Z,102435.89
2018-12-15T12:51:02.377Z,102431.70
2018-12-15T12:53:29.757Z,102431.67
2018-12-15T12:55:57.218Z,102430.84
2018-12-15T12:58:24.630Z,102430.30
2018-12-15T13:00:52.033Z,102425.86
2018-12-15T13:03:19.477Z,102433.69
2018-12-15T13:05:46.905Z,102435.00
2018-12-15T13:08:14.277Z,102434.60
2018-12-15T13:10:41.734Z,102432.98
2018-12-15T13:13:09.101Z,102418.83
2018-12-15T13:15:36.490Z,102422.73
2018-12-15T13:18:03.873Z,102425.27
2018-12-15T13:20:31.259Z,102420.71
2018-12-15T13:22:58.643Z,102423.68
2018-12-15T13:25:26.024Z,102429.72
2018-12-15T13:27:53.418Z,102425.88
2018-12-15T13:30:20.803Z,102422.97
2018-12-15T13:32:48.165Z,102416.85
2018-12-15T13:35:15.553Z,102417.25
2018-12-15T13:37:42.918Z,102413.36
2018-12-15T13:40:10.612Z,102418.53
2018-12-15T13:42:37.973Z,102408.29
2018-12-15T13:45:05.565Z,102407.00
2018-12-15T13:47:32.946Z,102407.87
2018-12-15T13:50:00.325Z,102407.53
2018-12-15T13:52:27.693Z,102406.02
2018-12-15T13:54:55.071Z,102405.16
2018-12-15T13:57:22.463Z,102407.45
2018-12-15T13:59:49.842Z,102403.19
2018-12-15T14:02:17.223Z,102403.61
2018-12-15T14:04:44.595Z,102403.09
2018-12-15T14:07:11.971Z,102400.94
2018-12-15T14:09:39.357Z,102403.83
2018-12-15T14:12:07.161Z,102405.78
2018-12-15T14:14:34.545Z,102398.88
2018-12-15T14:17:01.922Z,102394.30
2018-12-15T14:19:29.293Z,102399.03
2018-12-15T14:21:56.689Z,102393.78
2018-12-15T14:24:24.073Z,102398.61
2018-12-15T14:26:51.455Z,102392.59
2018-12-15T14:29:18.847Z,102391.31
2018-12-15T14:31:46.310Z,102377.62
2018-12-15T14:34:13.685Z,102379.19
2018-12-15T14:36:41.078Z,102381.49
2018-12-15T14:39:08.454Z,102374.91
2018-12-15T14:41:35.839Z,102369.77
2018-12-15T14:44:03.241Z,102367.15
2018-12-15T14:46:30.627Z,102365.19
2018-12-15T14:48:58.008Z,102358.54
2018-12-15T14:51:25.388Z,102364.83
2018-12-15T14:53:52.757Z,102364.31
2018-12-15T14:56:20.142Z,102359.17
2018-12-15T14:58:47.613Z,102363.10
2018-12-15T15:01:15.014Z,102351.55
2018-12-15T15:03:42.892Z,102351.41
2018-12-15T15:06:10.270Z,102350.49
2018-12-15T15:08:37.670Z,102346.78
2018-12-15T15:11:05.067Z,102347.28
2018-12-15T15:13:34.652Z,102342.66
2018-12-15T15:16:01.813Z,102337.48
2018-12-15T15:18:29.212Z,102333.20
2018-12-15T15:20:56.582Z,102327.20
2018-12-15T15:23:23.963Z,102320.63
2018-12-15T15:25:51.365Z,102327.97
2018-12-15T15:28:18.762Z,102328.36
2018-12-15T15:30:46.137Z,102321.02
2018-12-15T15:33:13.521Z,102324.03
2018-12-15T15:35:40.924Z,102320.93
2018-12-15T15:38:08.325Z,102317.13
2018-12-15T15:40:35.709Z,102307.25
2018-12-15T15:43:03.152Z,102301.76
2018-12-15T15:45:30.557Z,102299.12
2018-12-15T15:47:58.026Z,102299.62
2018-12-15T15:50:25.406Z,102292.41
2018-12-15T15:52:52.793Z,102284.49
2018-12-15T15:55:20.183Z,102281.41
2018-12-15T15:57:47.586Z,102277.59
2018-12-15T16:00:14.970Z,102278.98
2018-12-15T16:02:42.352Z,102276.69
2018-12-15T16:05:09.813Z,102276.66
2018-12-15T16:07:37.190Z,102273.63
2018-12-15T16:10:07.374Z,102263.27
2018-12-15T16:12:34.780Z,102262.00
2018-12-15T16:15:02.180Z,102258.55
2018-12-15T16:17:29.649Z,102250.28
2018-12-15T16:19:57.042Z,102249.51
2018-12-15T16:22:24.440Z,102240.58
2018-12-15T16:24:51.848Z,102249.88
2018-12-15T16:27:19.257Z,102248.18
2018-12-15T16:29:46.651Z,102245.11
2018-12-15T16:32:14.131Z,102246.77
2018-12-15T16:34:41.639Z,102242.86
2018-12-15T16:37:10.453Z,102230.51
2018-12-15T16:39:37.973Z,102230.11
2018-12-15T16:42:05.365Z,102224.37
2018-12-15T16:44:32.943Z,102219.97
2018-12-15T16:47:00.343Z,102219.16
2018-12-15T16:49:27.722Z,102214.91
2018-12-15T16:51:55.143Z,102217.03
2018-12-15T16:54:22.547Z,102212.61
2018-12-15T16:56:49.934Z,102210.51
2018-12-15T16:59:17.345Z,102218.19
2018-12-15T17:01:44.742Z,102217.73
2018-12-15T17:04:12.124Z,102216.44
2018-12-15T17:06:39.535Z,102212.61
2018-12-15T17:09:08.005Z,102212.28
2018-12-15T17:11:35.394Z,102205.81
2018-12-15T17:14:02.903Z,102206.93
2018-12-15T17:16:30.366Z,102196.66
2018-12-15T17:18:57.745Z,102196.92
2018-12-15T17:21:25.117Z,102195.38
2018-12-15T17:23:52.497Z,102194.51
2018-12-15T17:26:19.890Z,102194.53
2018-12-15T17:28:47.285Z,102190.95
2018-12-15T17:31:14.665Z,102184.55
2018-12-15T17:33:42.050Z,102182.43
2018-12-15T17:36:09.441Z,102183.73
2018-12-15T17:38:36.864Z,102183.27
2018-12-15T17:41:04.269Z,102182.45
2018-12-15T17:43:31.657Z,102175.52
2018-12-15T17:45:59.033Z,102168.23
2018-12-15T17:48:26.414Z,102172.11
2018-12-15T17:50:53.805Z,102168.33
2018-12-15T17:53:21.177Z,102167.64
2018-12-15T17:55:48.571Z,102162.56
2018-12-15T17:58:15.960Z,102157.97
2018-12-15T18:00:43.326Z,102153.16
2018-12-15T18:03:10.732Z,102151.92
2018-12-15T18:05:38.126Z,102149.84
2018-12-15T18:08:05.561Z,102151.15
2018-12-15T18:10:32.946Z,102160.12
2018-12-15T18:13:00.326Z,102154.95
2018-12-15T18:15:27.697Z,102140.78
2018-12-15T18:17:55.090Z,102130.64
2018-12-15T18:20:22.477Z,102131.81
2018-12-15T18:22:49.871Z,102116.39
2018-12-15T18:25:17.264Z,102121.30
2018-12-15T18:27:44.702Z,102118.63
2018-12-15T18:30:12.142Z,102117.07
2018-12-15T18:32:39.629Z,102120.00
2018-12-15T18:35:07.014Z,102117.94
2018-12-15T18:37:34.397Z,102114.91
2018-12-15T18:40:01.791Z,102104.28
2018-12-15T18:42:29.268Z,102099.64
2018-12-15T18:44:56.636Z,102092.28
2018-12-15T18:47:24.016Z,102087.98
2018-12-15T18:49:51.402Z,102086.76
2018-12-15T18:52:18.798Z,102080.33
2018-12-15T18:54:46.200Z,102081.58
2018-12-15T18:57:13.600Z,102081.27
2018-12-15T18:59:40.984Z,102069.73
2018-12-15T19:02:08.459Z,102070.53
2018-12-15T19:04:35.848Z,102066.24
2018-12-15T19:07:03.241Z,102059.38
2018-12-15T19:09:30.625Z,102059.47
2018-12-15T19:11:58.009Z,102054.17
2018-12-15T19:14:25.412Z,102058.95
2018-12-15T19:16:52.865Z,102042.73
2018-12-15T19:19:20.285Z,102052.55
2018-12-15T19:21:47.663Z,102046.63
2018-12-15T19:24:15.045Z,102034.69
2018-12-15T19:26:42.448Z,102041.53
2018-12-15T19:29:09.831Z,102038.45
2018-12-15T19:31:37.211Z,102032.00
2018-12-15T19:34:04.590Z,102036.39
2018-12-15T19:36:31.992Z,102027.02
2018-12-15T19:38:59.384Z,102022.23
2018-12-15T19:41:26.857Z,102020.56
2018-12-15T19:43:54.242Z,102013.37
2018-12-15T19:46:21.638Z,102018.08
2018-12-15T19:48:49.034Z,102012.09
2018-12-15T19:51:16.410Z,102014.22
2018-12-15T19:53:43.789Z,102000.13
2018-12-15T19:56:11.182Z,101999.64
2018-12-15T19:58:38.564Z,102007.41
2018-12-15T20:01:05.946Z,101998.84
2018-12-15T20:03:33.327Z,101990.72
2018-12-15T20:06:00.721Z,101990.72
2018-12-15T20:08:28.118Z,101989.05
2018-12-15T20:10:55.493Z,101983.48
2018-12-15T20:13:22.880Z,101978.75
2018-12-15T20:15:50.341Z,101978.70
2018-12-15T20:18:17.739Z,101969.31
2018-12-15T20:20:45.132Z,101971.86
2018-12-15T20:23:13.334Z,101966.34
2018-12-15T20:25:40.743Z,101965.53
2018-12-15T20:28:08.161Z,101962.03
2018-12-15T20:30:35.538Z,101957.77
2018-12-15T20:33:02.948Z,101961.66
2018-12-15T20:35:30.403Z,101962.09
2018-12-15T20:37:57.781Z,101957.33
2018-12-15T20:40:25.162Z,101940.64
2018-12-15T20:42:52.542Z,101940.22
2018-12-15T20:45:20.006Z,101935.98
2018-12-15T20:47:47.406Z,101927.84
2018-12-15T20:50:14.858Z,101931.26
2018-12-15T20:52:47.570Z,101924.38
2018-12-15T20:55:11.661Z,101930.70
2018-12-15T20:57:39.155Z,101930.31
2018-12-15T21:00:08.425Z,101929.06
2018-12-15T21:02:35.821Z,101934.20
2018-12-15T21:05:03.900Z,101927.77
2018-12-15T21:07:31.361Z,101933.73
2018-12-15T21:09:58.838Z,101922.59
2018-12-15T21:12:26.221Z,101916.19
2018-12-15T21:14:53.898Z,101917.06
2018-12-15T21:17:21.416Z,101914.47
2018-12-15T21:19:48.808Z,101902.48
2018-12-15T21:22:16.179Z,101904.66
2018-12-15T21:24:43.574Z,101896.88
2018-12-15T21:27:10.960Z,101893.44
2018-12-15T21:29:38.335Z,101893.38
2018-12-15T21:32:05.726Z,101892.53
2018-12-15T21:34:33.114Z,101881.88
2018-12-15T21:37:00.492Z,101879.64
2018-12-15T21:39:27.860Z,101876.24
2018-12-15T21:41:55.328Z,101870.64
2018-12-15T21:44:22.736Z,101858.19
2018-12-15T21:46:50.126Z,101859.46
2018-12-15T21:49:17.510Z,101848.30
2018-12-15T21:51:44.898Z,101843.61
2018-12-15T21:54:12.290Z,101839.77
2018-12-15T21:56:39.674Z,101836.27
2018-12-15T21:59:07.058Z,101831.11
2018-12-15T22:01:34.469Z,101828.90
2018-12-15T22:04:01.858Z,101821.56
2018-12-15T22:06:29.240Z,101816.81
2018-12-15T22:08:56.609Z,101816.01
2018-12-15T22:11:24.007Z,101806.63
2018-12-15T22:13:51.399Z,101810.79
2018-12-15T22:16:18.785Z,101804.37
2018-12-15T22:18:46.189Z,101799.66
2018-12-15T22:21:13.587Z,101790.59
2018-12-15T22:23:40.977Z,101788.89
2018-12-15T22:26:08.365Z,101784.53
2018-12-15T22:28:35.758Z,101775.14
2018-12-15T22:31:03.145Z,101767.84
2018-12-15T22:33:30.536Z,101757.89
2018-12-15T22:35:57.929Z,101754.51
2018-12-15T22:38:25.313Z,101744.61
2018-12-15T22:40:52.726Z,101744.63
2018-12-15T22:43:20.117Z,101734.31
2018-12-15T22:45:47.528Z,101729.59
2018-12-15T22:48:14.928Z,101720.20
2018-12-15T22:50:42.314Z,101714.61
2018-12-15T22:53:09.694Z,101716.29
2018-12-15T22:55:37.112Z,101721.80
2018-12-15T22:58:04.492Z,101712.38
2018-12-15T23:00:33.790Z,101706.87
2018-12-15T23:03:01.183Z,101708.58
2018-12-15T23:05:28.566Z,101706.39
2018-12-15T23:07:55.962Z,101708.45
2018-12-15T23:10:23.362Z,101696.89
2018-12-15T23:12:50.765Z,101701.20
2018-12-15T23:15:18.152Z,101691.37
2018-12-15T23:17:45.542Z,101694.37
2018-12-15T23:20:12.938Z,101699.88
2018-12-15T23:22:40.325Z,101695.58
2018-12-15T23:25:07.726Z,101690.48
2018-12-15T23:27:35.117Z,101681.92
2018-12-15T23:30:02.588Z,101670.78
2018-12-15T23:32:29.973Z,101675.42
2018-12-15T23:34:57.385Z,101675.41
2018-12-15T23:37:24.765Z,101674.61
2018-12-15T23:39:52.158Z,101669.05
2018-12-15T23:42:19.542Z,101668.99
2018-12-15T23:44:47.015Z,101667.24
2018-12-15T23:47:14.410Z,101653.98
2018-12-15T23:49:41.814Z,101646.75
2018-12-15T23:52:09.190Z,101645.88
2018-12-15T23:54:36.612Z,101635.09
2018-12-15T23:57:04.019Z,101637.22
2018-12-15T23:59:31.420Z,101624.49
